sensor_id;sensor_type;location;lat;lon;timestamp;P1;durP1;ratioP1;P2;durP2;ratioP2
2257;SDS011;1136;51.574;7.706;2023-12-20T00:01:43;22.83;;;18.13;;
2257;SDS011;1136;51.574;7.706;2023-12-20T00:04:47;24.60;;;18.70;;
2257;SDS011;1136;51.574;7.706;2023-12-20T00:07:51;23.77;;;16.70;;
2257;SDS011;1136;51.574;7.706;2023-12-20T00:10:56;22.87;;;16.77;;
2257;SDS011;1136;51.574;7.706;2023-12-20T00:14:00;21.77;;;16.63;;
2257;SDS011;1136;51.574;7.706;2023-12-20T00:17:04;20.03;;;15.73;;
2257;SDS011;1136;51.574;7.706;2023-12-20T00:20:08;22.57;;;16.90;;
2257;SDS011;1136;51.574;7.706;2023-12-20T00:23:12;22.43;;;16.23;;
2257;SDS011;1136;51.574;7.706;2023-12-20T00:26:16;22.17;;;16.43;;
2257;SDS011;1136;51.574;7.706;2023-12-20T00:29:20;25.77;;;18.63;;
2257;SDS011;1136;51.574;7.706;2023-12-20T00:32:24;26.20;;;17.17;;
2257;SDS011;1136;51.574;7.706;2023-12-20T00:35:28;26.40;;;17.60;;
2257;SDS011;1136;51.574;7.706;2023-12-20T00:38:32;24.00;;;16.93;;
2257;SDS011;1136;51.574;7.706;2023-12-20T00:41:36;27.37;;;17.77;;
2257;SDS011;1136;51.574;7.706;2023-12-20T00:44:41;26.27;;;17.40;;
2257;SDS011;1136;51.574;7.706;2023-12-20T00:47:45;28.63;;;18.50;;
2257;SDS011;1136;51.574;7.706;2023-12-20T00:50:49;31.10;;;17.00;;
2257;SDS011;1136;51.574;7.706;2023-12-20T00:53:53;29.57;;;19.20;;
2257;SDS011;1136;51.574;7.706;2023-12-20T00:56:58;26.93;;;16.80;;
2257;SDS011;1136;51.574;7.706;2023-12-20T01:00:03;24.47;;;16.53;;
2257;SDS011;1136;51.574;7.706;2023-12-20T01:03:11;21.90;;;15.50;;
2257;SDS011;1136;51.574;7.706;2023-12-20T01:06:18;23.33;;;14.90;;
2257;SDS011;1136;51.574;7.706;2023-12-20T01:09:22;26.60;;;14.77;;
2257;SDS011;1136;51.574;7.706;2023-12-20T01:12:31;20.73;;;14.37;;
2257;SDS011;1136;51.574;7.706;2023-12-20T01:15:37;22.37;;;14.57;;
2257;SDS011;1136;51.574;7.706;2023-12-20T01:18:41;21.03;;;14.53;;
2257;SDS011;1136;51.574;7.706;2023-12-20T01:21:45;20.07;;;13.63;;
2257;SDS011;1136;51.574;7.706;2023-12-20T01:24:49;18.53;;;13.13;;
2257;SDS011;1136;51.574;7.706;2023-12-20T01:27:53;24.17;;;15.23;;
2257;SDS011;1136;51.574;7.706;2023-12-20T01:30:57;23.37;;;13.40;;
2257;SDS011;1136;51.574;7.706;2023-12-20T01:34:02;16.67;;;12.20;;
2257;SDS011;1136;51.574;7.706;2023-12-20T01:37:06;22.77;;;10.80;;
2257;SDS011;1136;51.574;7.706;2023-12-20T01:40:10;18.63;;;10.77;;
2257;SDS011;1136;51.574;7.706;2023-12-20T01:43:14;19.70;;;10.23;;
2257;SDS011;1136;51.574;7.706;2023-12-20T01:46:19;14.50;;;9.17;;
2257;SDS011;1136;51.574;7.706;2023-12-20T01:49:24;18.53;;;9.53;;
2257;SDS011;1136;51.574;7.706;2023-12-20T01:52:28;11.07;;;8.13;;
2257;SDS011;1136;51.574;7.706;2023-12-20T01:55:33;16.50;;;6.77;;
2257;SDS011;1136;51.574;7.706;2023-12-20T01:58:39;15.50;;;7.07;;
2257;SDS011;1136;51.574;7.706;2023-12-20T02:01:47;13.23;;;6.57;;
2257;SDS011;1136;51.574;7.706;2023-12-20T02:04:51;11.10;;;7.00;;
2257;SDS011;1136;51.574;7.706;2023-12-20T02:07:56;12.60;;;7.37;;
2257;SDS011;1136;51.574;7.706;2023-12-20T02:11:00;16.27;;;5.50;;
2257;SDS011;1136;51.574;7.706;2023-12-20T02:14:05;5.93;;;5.03;;
2257;SDS011;1136;51.574;7.706;2023-12-20T02:17:09;6.97;;;4.53;;
2257;SDS011;1136;51.574;7.706;2023-12-20T02:20:13;7.10;;;4.70;;
2257;SDS011;1136;51.574;7.706;2023-12-20T02:23:18;7.07;;;4.63;;
2257;SDS011;1136;51.574;7.706;2023-12-20T02:26:25;12.57;;;5.67;;
2257;SDS011;1136;51.574;7.706;2023-12-20T02:29:29;11.13;;;4.47;;
2257;SDS011;1136;51.574;7.706;2023-12-20T02:32:35;9.90;;;5.00;;
2257;SDS011;1136;51.574;7.706;2023-12-20T02:35:40;14.63;;;4.70;;
2257;SDS011;1136;51.574;7.706;2023-12-20T02:38:44;13.33;;;4.87;;
2257;SDS011;1136;51.574;7.706;2023-12-20T02:41:48;9.60;;;4.77;;
2257;SDS011;1136;51.574;7.706;2023-12-20T02:44:52;14.60;;;5.53;;
2257;SDS011;1136;51.574;7.706;2023-12-20T02:47:56;12.60;;;4.87;;
2257;SDS011;1136;51.574;7.706;2023-12-20T02:51:01;8.60;;;5.30;;
2257;SDS011;1136;51.574;7.706;2023-12-20T02:54:05;8.27;;;4.23;;
2257;SDS011;1136;51.574;7.706;2023-12-20T02:57:09;10.33;;;4.90;;
2257;SDS011;1136;51.574;7.706;2023-12-20T03:00:13;8.37;;;5.60;;
2257;SDS011;1136;51.574;7.706;2023-12-20T03:03:17;12.60;;;6.77;;
2257;SDS011;1136;51.574;7.706;2023-12-20T03:06:21;13.77;;;5.90;;
2257;SDS011;1136;51.574;7.706;2023-12-20T03:09:25;8.70;;;5.47;;
2257;SDS011;1136;51.574;7.706;2023-12-20T03:12:30;9.50;;;5.93;;
2257;SDS011;1136;51.574;7.706;2023-12-20T03:15:33;18.87;;;6.20;;
2257;SDS011;1136;51.574;7.706;2023-12-20T03:18:38;11.83;;;6.17;;
2257;SDS011;1136;51.574;7.706;2023-12-20T03:21:42;8.40;;;6.83;;
2257;SDS011;1136;51.574;7.706;2023-12-20T03:24:46;17.83;;;7.23;;
2257;SDS011;1136;51.574;7.706;2023-12-20T03:27:49;8.63;;;6.90;;
2257;SDS011;1136;51.574;7.706;2023-12-20T03:30:53;17.27;;;7.87;;
2257;SDS011;1136;51.574;7.706;2023-12-20T03:33:58;8.77;;;5.80;;
2257;SDS011;1136;51.574;7.706;2023-12-20T03:37:02;27.33;;;7.73;;
2257;SDS011;1136;51.574;7.706;2023-12-20T03:40:06;9.70;;;5.73;;
2257;SDS011;1136;51.574;7.706;2023-12-20T03:43:10;12.70;;;5.67;;
2257;SDS011;1136;51.574;7.706;2023-12-20T03:46:14;15.27;;;7.70;;
2257;SDS011;1136;51.574;7.706;2023-12-20T03:49:18;9.77;;;5.77;;
2257;SDS011;1136;51.574;7.706;2023-12-20T03:52:23;15.67;;;6.57;;
2257;SDS011;1136;51.574;7.706;2023-12-20T03:55:26;11.63;;;5.43;;
2257;SDS011;1136;51.574;7.706;2023-12-20T03:58:30;18.97;;;7.43;;
2257;SDS011;1136;51.574;7.706;2023-12-20T04:01:34;12.77;;;6.67;;
2257;SDS011;1136;51.574;7.706;2023-12-20T04:04:39;14.53;;;6.63;;
2257;SDS011;1136;51.574;7.706;2023-12-20T04:07:44;14.77;;;6.13;;
2257;SDS011;1136;51.574;7.706;2023-12-20T04:10:52;11.50;;;6.60;;
2257;SDS011;1136;51.574;7.706;2023-12-20T04:13:56;9.33;;;6.20;;
2257;SDS011;1136;51.574;7.706;2023-12-20T04:17:00;18.70;;;7.00;;
2257;SDS011;1136;51.574;7.706;2023-12-20T04:20:04;14.30;;;6.63;;
2257;SDS011;1136;51.574;7.706;2023-12-20T04:23:09;15.97;;;8.00;;
2257;SDS011;1136;51.574;7.706;2023-12-20T04:26:13;11.60;;;6.33;;
2257;SDS011;1136;51.574;7.706;2023-12-20T04:29:17;11.47;;;7.93;;
2257;SDS011;1136;51.574;7.706;2023-12-20T04:32:21;18.97;;;8.80;;
2257;SDS011;1136;51.574;7.706;2023-12-20T04:35:27;19.40;;;7.90;;
2257;SDS011;1136;51.574;7.706;2023-12-20T04:38:31;16.33;;;8.80;;
2257;SDS011;1136;51.574;7.706;2023-12-20T04:41:35;16.63;;;10.33;;
2257;SDS011;1136;51.574;7.706;2023-12-20T04:44:39;17.20;;;7.73;;
2257;SDS011;1136;51.574;7.706;2023-12-20T04:47:43;13.80;;;9.07;;
2257;SDS011;1136;51.574;7.706;2023-12-20T04:50:47;14.90;;;9.27;;
2257;SDS011;1136;51.574;7.706;2023-12-20T04:53:51;13.57;;;8.60;;
2257;SDS011;1136;51.574;7.706;2023-12-20T04:56:55;15.10;;;8.27;;
2257;SDS011;1136;51.574;7.706;2023-12-20T04:59:59;24.23;;;8.13;;
2257;SDS011;1136;51.574;7.706;2023-12-20T05:03:03;14.63;;;8.33;;
2257;SDS011;1136;51.574;7.706;2023-12-20T05:06:09;13.50;;;8.63;;
2257;SDS011;1136;51.574;7.706;2023-12-20T05:09:13;14.83;;;8.00;;
2257;SDS011;1136;51.574;7.706;2023-12-20T05:12:18;16.23;;;9.10;;
2257;SDS011;1136;51.574;7.706;2023-12-20T05:15:22;15.83;;;10.33;;
2257;SDS011;1136;51.574;7.706;2023-12-20T05:18:26;16.53;;;8.97;;
2257;SDS011;1136;51.574;7.706;2023-12-20T05:21:30;19.80;;;8.67;;
2257;SDS011;1136;51.574;7.706;2023-12-20T05:24:35;14.73;;;8.40;;
2257;SDS011;1136;51.574;7.706;2023-12-20T05:27:39;16.17;;;9.30;;
2257;SDS011;1136;51.574;7.706;2023-12-20T05:30:43;16.37;;;9.30;;
2257;SDS011;1136;51.574;7.706;2023-12-20T05:33:47;19.23;;;10.30;;
2257;SDS011;1136;51.574;7.706;2023-12-20T05:36:52;21.93;;;10.90;;
2257;SDS011;1136;51.574;7.706;2023-12-20T05:39:56;26.30;;;10.77;;
2257;SDS011;1136;51.574;7.706;2023-12-20T05:43:00;14.10;;;9.30;;
2257;SDS011;1136;51.574;7.706;2023-12-20T05:46:09;15.40;;;8.77;;
2257;SDS011;1136;51.574;7.706;2023-12-20T05:49:15;15.57;;;8.37;;
2257;SDS011;1136;51.574;7.706;2023-12-20T05:52:19;13.67;;;8.43;;
2257;SDS011;1136;51.574;7.706;2023-12-20T05:55:23;17.80;;;8.63;;
2257;SDS011;1136;51.574;7.706;2023-12-20T05:58:27;14.80;;;9.07;;
2257;SDS011;1136;51.574;7.706;2023-12-20T06:01:45;21.10;;;9.67;;
2257;SDS011;1136;51.574;7.706;2023-12-20T06:04:53;22.07;;;10.50;;
2257;SDS011;1136;51.574;7.706;2023-12-20T06:07:57;23.70;;;11.60;;
2257;SDS011;1136;51.574;7.706;2023-12-20T06:11:04;15.33;;;9.10;;
2257;SDS011;1136;51.574;7.706;2023-12-20T06:14:11;20.93;;;10.30;;
2257;SDS011;1136;51.574;7.706;2023-12-20T06:17:15;21.20;;;10.07;;
2257;SDS011;1136;51.574;7.706;2023-12-20T06:23:50;16.47;;;10.03;;
2257;SDS011;1136;51.574;7.706;2023-12-20T06:27:02;21.00;;;9.10;;
2257;SDS011;1136;51.574;7.706;2023-12-20T06:30:16;24.37;;;9.40;;
2257;SDS011;1136;51.574;7.706;2023-12-20T06:33:20;14.50;;;7.90;;
2257;SDS011;1136;51.574;7.706;2023-12-20T06:36:26;16.60;;;7.50;;
2257;SDS011;1136;51.574;7.706;2023-12-20T06:39:30;19.80;;;7.40;;
2257;SDS011;1136;51.574;7.706;2023-12-20T06:42:35;16.03;;;7.87;;
2257;SDS011;1136;51.574;7.706;2023-12-20T06:49:59;14.53;;;7.83;;
2257;SDS011;1136;51.574;7.706;2023-12-20T06:53:13;19.63;;;7.00;;
2257;SDS011;1136;51.574;7.706;2023-12-20T06:56:17;11.87;;;7.87;;
2257;SDS011;1136;51.574;7.706;2023-12-20T06:59:22;22.13;;;8.47;;
2257;SDS011;1136;51.574;7.706;2023-12-20T07:02:26;20.30;;;9.70;;
2257;SDS011;1136;51.574;7.706;2023-12-20T07:05:34;25.27;;;9.40;;
2257;SDS011;1136;51.574;7.706;2023-12-20T07:08:38;16.23;;;8.93;;
2257;SDS011;1136;51.574;7.706;2023-12-20T07:11:43;22.37;;;10.10;;
2257;SDS011;1136;51.574;7.706;2023-12-20T07:14:47;22.53;;;10.07;;
2257;SDS011;1136;51.574;7.706;2023-12-20T07:17:52;19.20;;;9.77;;
2257;SDS011;1136;51.574;7.706;2023-12-20T07:20:56;14.37;;;8.30;;
2257;SDS011;1136;51.574;7.706;2023-12-20T07:24:00;20.37;;;9.17;;
2257;SDS011;1136;51.574;7.706;2023-12-20T07:27:04;18.13;;;9.90;;
2257;SDS011;1136;51.574;7.706;2023-12-20T07:30:08;13.83;;;8.87;;
2257;SDS011;1136;51.574;7.706;2023-12-20T07:33:13;17.57;;;9.37;;
2257;SDS011;1136;51.574;7.706;2023-12-20T07:36:19;15.67;;;8.47;;
2257;SDS011;1136;51.574;7.706;2023-12-20T07:39:23;20.97;;;9.70;;
2257;SDS011;1136;51.574;7.706;2023-12-20T07:42:27;16.00;;;9.10;;
2257;SDS011;1136;51.574;7.706;2023-12-20T07:45:31;13.47;;;9.23;;
2257;SDS011;1136;51.574;7.706;2023-12-20T07:48:35;17.27;;;9.27;;
2257;SDS011;1136;51.574;7.706;2023-12-20T07:51:45;13.37;;;8.10;;
2257;SDS011;1136;51.574;7.706;2023-12-20T07:54:50;26.10;;;9.80;;
2257;SDS011;1136;51.574;7.706;2023-12-20T07:57:54;22.03;;;8.47;;
2257;SDS011;1136;51.574;7.706;2023-12-20T08:00:58;23.93;;;9.03;;
2257;SDS011;1136;51.574;7.706;2023-12-20T08:04:02;20.77;;;10.50;;
2257;SDS011;1136;51.574;7.706;2023-12-20T08:07:06;17.70;;;8.60;;
2257;SDS011;1136;51.574;7.706;2023-12-20T08:10:11;21.53;;;8.60;;
2257;SDS011;1136;51.574;7.706;2023-12-20T08:13:15;18.83;;;8.73;;
2257;SDS011;1136;51.574;7.706;2023-12-20T08:16:19;13.60;;;8.00;;
2257;SDS011;1136;51.574;7.706;2023-12-20T08:19:26;14.20;;;7.47;;
2257;SDS011;1136;51.574;7.706;2023-12-20T08:22:30;16.07;;;8.23;;
2257;SDS011;1136;51.574;7.706;2023-12-20T08:25:34;13.23;;;8.47;;
2257;SDS011;1136;51.574;7.706;2023-12-20T08:28:39;19.67;;;8.10;;
2257;SDS011;1136;51.574;7.706;2023-12-20T08:31:46;13.43;;;8.17;;
2257;SDS011;1136;51.574;7.706;2023-12-20T08:34:50;15.33;;;8.40;;
2257;SDS011;1136;51.574;7.706;2023-12-20T08:37:54;11.50;;;8.23;;
2257;SDS011;1136;51.574;7.706;2023-12-20T08:40:59;17.33;;;8.80;;
2257;SDS011;1136;51.574;7.706;2023-12-20T08:44:03;14.17;;;7.60;;
2257;SDS011;1136;51.574;7.706;2023-12-20T08:47:10;12.27;;;8.33;;
2257;SDS011;1136;51.574;7.706;2023-12-20T08:50:17;20.07;;;9.20;;
2257;SDS011;1136;51.574;7.706;2023-12-20T08:53:22;15.20;;;8.27;;
2257;SDS011;1136;51.574;7.706;2023-12-20T08:56:26;12.70;;;7.33;;
2257;SDS011;1136;51.574;7.706;2023-12-20T08:59:30;14.80;;;8.20;;
2257;SDS011;1136;51.574;7.706;2023-12-20T09:02:35;21.20;;;8.30;;
2257;SDS011;1136;51.574;7.706;2023-12-20T09:05:40;13.23;;;8.07;;
2257;SDS011;1136;51.574;7.706;2023-12-20T09:08:44;14.63;;;7.47;;
2257;SDS011;1136;51.574;7.706;2023-12-20T09:11:47;13.03;;;8.27;;
2257;SDS011;1136;51.574;7.706;2023-12-20T09:14:53;13.83;;;8.20;;
2257;SDS011;1136;51.574;7.706;2023-12-20T09:17:58;18.30;;;7.73;;
2257;SDS011;1136;51.574;7.706;2023-12-20T09:21:02;19.03;;;8.10;;
2257;SDS011;1136;51.574;7.706;2023-12-20T09:24:07;14.77;;;8.00;;
2257;SDS011;1136;51.574;7.706;2023-12-20T09:27:11;12.47;;;6.77;;
2257;SDS011;1136;51.574;7.706;2023-12-20T09:30:15;11.93;;;7.10;;
2257;SDS011;1136;51.574;7.706;2023-12-20T09:33:30;12.07;;;6.83;;
2257;SDS011;1136;51.574;7.706;2023-12-20T09:36:34;9.90;;;7.70;;
2257;SDS011;1136;51.574;7.706;2023-12-20T09:39:40;23.87;;;7.63;;
2257;SDS011;1136;51.574;7.706;2023-12-20T09:45:58;9.80;;;7.23;;
2257;SDS011;1136;51.574;7.706;2023-12-20T09:49:06;21.10;;;8.60;;
2257;SDS011;1136;51.574;7.706;2023-12-20T09:52:10;10.63;;;7.40;;
2257;SDS011;1136;51.574;7.706;2023-12-20T09:55:15;15.13;;;6.20;;
2257;SDS011;1136;51.574;7.706;2023-12-20T09:58:21;17.20;;;7.10;;
2257;SDS011;1136;51.574;7.706;2023-12-20T10:01:28;15.23;;;6.80;;
2257;SDS011;1136;51.574;7.706;2023-12-20T10:04:33;15.60;;;6.33;;
2257;SDS011;1136;51.574;7.706;2023-12-20T10:07:38;16.77;;;6.70;;
2257;SDS011;1136;51.574;7.706;2023-12-20T10:10:43;11.80;;;6.10;;
2257;SDS011;1136;51.574;7.706;2023-12-20T10:13:51;24.83;;;7.10;;
2257;SDS011;1136;51.574;7.706;2023-12-20T10:17:01;13.23;;;5.47;;
2257;SDS011;1136;51.574;7.706;2023-12-20T10:20:09;14.83;;;5.83;;
2257;SDS011;1136;51.574;7.706;2023-12-20T10:23:15;14.87;;;7.00;;
2257;SDS011;1136;51.574;7.706;2023-12-20T10:26:23;8.50;;;5.70;;
2257;SDS011;1136;51.574;7.706;2023-12-20T10:29:31;12.37;;;5.87;;
2257;SDS011;1136;51.574;7.706;2023-12-20T10:32:38;12.13;;;5.37;;
2257;SDS011;1136;51.574;7.706;2023-12-20T10:35:42;9.20;;;5.40;;
2257;SDS011;1136;51.574;7.706;2023-12-20T10:38:50;20.03;;;6.40;;
2257;SDS011;1136;51.574;7.706;2023-12-20T10:41:55;11.07;;;5.87;;
2257;SDS011;1136;51.574;7.706;2023-12-20T10:44:59;13.97;;;6.23;;
2257;SDS011;1136;51.574;7.706;2023-12-20T10:48:04;9.57;;;5.80;;
2257;SDS011;1136;51.574;7.706;2023-12-20T10:51:12;13.30;;;6.60;;
2257;SDS011;1136;51.574;7.706;2023-12-20T10:54:18;20.13;;;6.90;;
2257;SDS011;1136;51.574;7.706;2023-12-20T10:57:22;18.27;;;6.80;;
2257;SDS011;1136;51.574;7.706;2023-12-20T11:00:26;26.93;;;7.60;;
2257;SDS011;1136;51.574;7.706;2023-12-20T11:03:34;8.53;;;6.00;;
2257;SDS011;1136;51.574;7.706;2023-12-20T11:06:43;14.00;;;7.30;;
2257;SDS011;1136;51.574;7.706;2023-12-20T11:09:56;10.30;;;6.00;;
2257;SDS011;1136;51.574;7.706;2023-12-20T11:13:12;14.03;;;6.80;;
2257;SDS011;1136;51.574;7.706;2023-12-20T11:16:21;13.33;;;6.90;;
2257;SDS011;1136;51.574;7.706;2023-12-20T11:19:29;14.17;;;7.53;;
2257;SDS011;1136;51.574;7.706;2023-12-20T11:22:33;19.10;;;7.93;;
2257;SDS011;1136;51.574;7.706;2023-12-20T11:25:53;15.83;;;7.60;;
2257;SDS011;1136;51.574;7.706;2023-12-20T11:32:39;10.20;;;7.40;;
2257;SDS011;1136;51.574;7.706;2023-12-20T11:35:45;16.17;;;8.07;;
2257;SDS011;1136;51.574;7.706;2023-12-20T11:38:56;10.03;;;7.97;;
2257;SDS011;1136;51.574;7.706;2023-12-20T11:42:04;11.30;;;7.27;;
2257;SDS011;1136;51.574;7.706;2023-12-20T11:48:15;16.97;;;8.10;;
2257;SDS011;1136;51.574;7.706;2023-12-20T11:51:19;13.90;;;9.13;;
2257;SDS011;1136;51.574;7.706;2023-12-20T11:54:23;15.33;;;8.17;;
2257;SDS011;1136;51.574;7.706;2023-12-20T11:57:26;12.60;;;7.30;;
2257;SDS011;1136;51.574;7.706;2023-12-20T12:00:31;12.53;;;7.53;;
2257;SDS011;1136;51.574;7.706;2023-12-20T12:03:35;10.00;;;7.00;;
2257;SDS011;1136;51.574;7.706;2023-12-20T12:06:40;15.97;;;6.97;;
2257;SDS011;1136;51.574;7.706;2023-12-20T12:09:44;11.80;;;7.40;;
2257;SDS011;1136;51.574;7.706;2023-12-20T12:12:49;19.20;;;8.43;;
2257;SDS011;1136;51.574;7.706;2023-12-20T12:15:55;10.57;;;7.97;;
2257;SDS011;1136;51.574;7.706;2023-12-20T12:18:59;16.07;;;8.20;;
2257;SDS011;1136;51.574;7.706;2023-12-20T12:25:20;10.27;;;7.23;;
2257;SDS011;1136;51.574;7.706;2023-12-20T12:28:26;17.33;;;9.37;;
2257;SDS011;1136;51.574;7.706;2023-12-20T12:31:32;10.57;;;8.57;;
2257;SDS011;1136;51.574;7.706;2023-12-20T12:34:37;18.43;;;8.50;;
2257;SDS011;1136;51.574;7.706;2023-12-20T12:37:43;13.80;;;8.00;;
2257;SDS011;1136;51.574;7.706;2023-12-20T12:40:47;12.03;;;9.87;;
2257;SDS011;1136;51.574;7.706;2023-12-20T12:43:51;20.83;;;9.07;;
2257;SDS011;1136;51.574;7.706;2023-12-20T12:46:55;16.03;;;7.80;;
2257;SDS011;1136;51.574;7.706;2023-12-20T12:50:02;15.63;;;7.97;;
2257;SDS011;1136;51.574;7.706;2023-12-20T12:53:06;27.77;;;9.60;;
2257;SDS011;1136;51.574;7.706;2023-12-20T12:56:11;9.93;;;7.43;;
2257;SDS011;1136;51.574;7.706;2023-12-20T12:59:16;19.37;;;8.43;;
2257;SDS011;1136;51.574;7.706;2023-12-20T13:02:20;14.80;;;7.60;;
2257;SDS011;1136;51.574;7.706;2023-12-20T13:05:24;12.00;;;7.40;;
2257;SDS011;1136;51.574;7.706;2023-12-20T13:08:29;20.60;;;8.70;;
2257;SDS011;1136;51.574;7.706;2023-12-20T13:11:33;16.93;;;9.47;;
2257;SDS011;1136;51.574;7.706;2023-12-20T13:14:38;16.27;;;8.30;;
2257;SDS011;1136;51.574;7.706;2023-12-20T13:17:42;16.30;;;9.87;;
2257;SDS011;1136;51.574;7.706;2023-12-20T13:20:47;18.63;;;8.83;;
2257;SDS011;1136;51.574;7.706;2023-12-20T13:23:51;18.03;;;9.07;;
2257;SDS011;1136;51.574;7.706;2023-12-20T13:26:58;22.33;;;10.33;;
2257;SDS011;1136;51.574;7.706;2023-12-20T13:30:03;15.77;;;9.70;;
2257;SDS011;1136;51.574;7.706;2023-12-20T13:33:07;18.43;;;9.20;;
2257;SDS011;1136;51.574;7.706;2023-12-20T13:36:12;13.57;;;7.87;;
2257;SDS011;1136;51.574;7.706;2023-12-20T13:39:17;18.77;;;9.90;;
2257;SDS011;1136;51.574;7.706;2023-12-20T13:42:21;12.93;;;7.80;;
2257;SDS011;1136;51.574;7.706;2023-12-20T13:45:26;10.53;;;8.03;;
2257;SDS011;1136;51.574;7.706;2023-12-20T13:48:30;9.23;;;8.27;;
2257;SDS011;1136;51.574;7.706;2023-12-20T13:51:34;12.30;;;9.20;;
2257;SDS011;1136;51.574;7.706;2023-12-20T13:54:38;13.07;;;8.90;;
2257;SDS011;1136;51.574;7.706;2023-12-20T13:57:42;18.67;;;8.53;;
2257;SDS011;1136;51.574;7.706;2023-12-20T14:00:58;16.37;;;8.80;;
2257;SDS011;1136;51.574;7.706;2023-12-20T14:04:02;12.67;;;8.40;;
2257;SDS011;1136;51.574;7.706;2023-12-20T14:07:07;11.27;;;8.60;;
2257;SDS011;1136;51.574;7.706;2023-12-20T14:10:12;16.30;;;10.07;;
2257;SDS011;1136;51.574;7.706;2023-12-20T14:13:17;16.43;;;10.17;;
2257;SDS011;1136;51.574;7.706;2023-12-20T14:16:21;16.50;;;8.93;;
2257;SDS011;1136;51.574;7.706;2023-12-20T14:19:26;14.90;;;9.50;;
2257;SDS011;1136;51.574;7.706;2023-12-20T14:22:31;17.47;;;9.70;;
2257;SDS011;1136;51.574;7.706;2023-12-20T14:25:35;16.43;;;9.70;;
2257;SDS011;1136;51.574;7.706;2023-12-20T14:28:54;11.43;;;9.00;;
2257;SDS011;1136;51.574;7.706;2023-12-20T14:31:58;10.73;;;8.03;;
2257;SDS011;1136;51.574;7.706;2023-12-20T14:35:02;25.33;;;9.83;;
2257;SDS011;1136;51.574;7.706;2023-12-20T14:38:08;14.07;;;8.17;;
2257;SDS011;1136;51.574;7.706;2023-12-20T14:41:12;13.97;;;8.80;;
2257;SDS011;1136;51.574;7.706;2023-12-20T14:44:16;12.77;;;8.80;;
2257;SDS011;1136;51.574;7.706;2023-12-20T14:47:21;10.60;;;9.30;;
2257;SDS011;1136;51.574;7.706;2023-12-20T14:50:25;19.13;;;9.00;;
2257;SDS011;1136;51.574;7.706;2023-12-20T14:53:29;11.87;;;8.77;;
2257;SDS011;1136;51.574;7.706;2023-12-20T14:56:34;12.77;;;10.07;;
2257;SDS011;1136;51.574;7.706;2023-12-20T14:59:38;11.37;;;9.57;;
2257;SDS011;1136;51.574;7.706;2023-12-20T15:02:46;14.53;;;11.00;;
2257;SDS011;1136;51.574;7.706;2023-12-20T15:05:50;12.90;;;10.13;;
2257;SDS011;1136;51.574;7.706;2023-12-20T15:08:55;19.57;;;10.80;;
2257;SDS011;1136;51.574;7.706;2023-12-20T15:11:59;13.90;;;10.00;;
2257;SDS011;1136;51.574;7.706;2023-12-20T15:15:03;11.37;;;9.13;;
2257;SDS011;1136;51.574;7.706;2023-12-20T15:18:08;14.30;;;8.93;;
2257;SDS011;1136;51.574;7.706;2023-12-20T15:21:12;13.33;;;8.30;;
2257;SDS011;1136;51.574;7.706;2023-12-20T15:24:16;13.53;;;10.87;;
2257;SDS011;1136;51.574;7.706;2023-12-20T15:27:23;12.33;;;9.57;;
2257;SDS011;1136;51.574;7.706;2023-12-20T15:30:28;15.67;;;10.50;;
2257;SDS011;1136;51.574;7.706;2023-12-20T15:33:33;14.57;;;10.03;;
2257;SDS011;1136;51.574;7.706;2023-12-20T15:36:37;17.10;;;12.10;;
2257;SDS011;1136;51.574;7.706;2023-12-20T15:39:43;16.23;;;9.90;;
2257;SDS011;1136;51.574;7.706;2023-12-20T15:42:47;15.17;;;10.60;;
2257;SDS011;1136;51.574;7.706;2023-12-20T15:45:51;16.10;;;12.27;;
2257;SDS011;1136;51.574;7.706;2023-12-20T15:48:55;16.63;;;12.17;;
2257;SDS011;1136;51.574;7.706;2023-12-20T15:51:59;21.20;;;12.20;;
2257;SDS011;1136;51.574;7.706;2023-12-20T15:55:08;16.87;;;11.87;;
2257;SDS011;1136;51.574;7.706;2023-12-20T15:58:12;17.47;;;13.10;;
2257;SDS011;1136;51.574;7.706;2023-12-20T16:01:16;18.83;;;11.43;;
2257;SDS011;1136;51.574;7.706;2023-12-20T16:04:21;20.10;;;11.80;;
2257;SDS011;1136;51.574;7.706;2023-12-20T16:07:25;16.80;;;12.33;;
2257;SDS011;1136;51.574;7.706;2023-12-20T16:10:29;17.00;;;12.73;;
2257;SDS011;1136;51.574;7.706;2023-12-20T16:13:33;20.00;;;12.27;;
2257;SDS011;1136;51.574;7.706;2023-12-20T16:16:37;18.60;;;12.73;;
2257;SDS011;1136;51.574;7.706;2023-12-20T16:19:41;19.23;;;11.97;;
2257;SDS011;1136;51.574;7.706;2023-12-20T16:22:48;17.90;;;11.10;;
2257;SDS011;1136;51.574;7.706;2023-12-20T16:25:52;18.40;;;11.43;;
2257;SDS011;1136;51.574;7.706;2023-12-20T16:28:57;16.70;;;11.90;;
2257;SDS011;1136;51.574;7.706;2023-12-20T16:32:01;20.83;;;10.17;;
2257;SDS011;1136;51.574;7.706;2023-12-20T16:35:06;20.40;;;11.90;;
2257;SDS011;1136;51.574;7.706;2023-12-20T16:38:10;22.47;;;12.17;;
2257;SDS011;1136;51.574;7.706;2023-12-20T16:41:14;21.70;;;11.40;;
2257;SDS011;1136;51.574;7.706;2023-12-20T16:44:19;21.53;;;12.10;;
2257;SDS011;1136;51.574;7.706;2023-12-20T16:47:23;17.77;;;11.50;;
2257;SDS011;1136;51.574;7.706;2023-12-20T16:50:30;14.73;;;12.10;;
2257;SDS011;1136;51.574;7.706;2023-12-20T16:53:35;23.73;;;10.90;;
2257;SDS011;1136;51.574;7.706;2023-12-20T16:56:39;16.40;;;10.43;;
2257;SDS011;1136;51.574;7.706;2023-12-20T16:59:44;15.43;;;11.23;;
2257;SDS011;1136;51.574;7.706;2023-12-20T17:02:48;15.83;;;10.83;;
2257;SDS011;1136;51.574;7.706;2023-12-20T17:05:55;15.50;;;9.90;;
2257;SDS011;1136;51.574;7.706;2023-12-20T17:08:59;15.63;;;10.37;;
2257;SDS011;1136;51.574;7.706;2023-12-20T17:12:03;16.90;;;9.57;;
2257;SDS011;1136;51.574;7.706;2023-12-20T17:15:08;15.33;;;9.90;;
2257;SDS011;1136;51.574;7.706;2023-12-20T17:18:12;23.33;;;10.90;;
2257;SDS011;1136;51.574;7.706;2023-12-20T17:21:18;15.70;;;10.50;;
2257;SDS011;1136;51.574;7.706;2023-12-20T17:24:22;20.67;;;10.20;;
2257;SDS011;1136;51.574;7.706;2023-12-20T17:27:26;18.83;;;10.60;;
2257;SDS011;1136;51.574;7.706;2023-12-20T17:30:30;15.53;;;10.80;;
2257;SDS011;1136;51.574;7.706;2023-12-20T17:33:34;21.40;;;12.07;;
2257;SDS011;1136;51.574;7.706;2023-12-20T17:37:44;21.23;;;11.90;;
2257;SDS011;1136;51.574;7.706;2023-12-20T17:40:48;21.13;;;11.87;;
2257;SDS011;1136;51.574;7.706;2023-12-20T17:43:53;21.87;;;13.00;;
2257;SDS011;1136;51.574;7.706;2023-12-20T17:46:58;17.00;;;12.60;;
2257;SDS011;1136;51.574;7.706;2023-12-20T17:50:02;28.03;;;14.40;;
2257;SDS011;1136;51.574;7.706;2023-12-20T17:53:07;18.00;;;12.20;;
2257;SDS011;1136;51.574;7.706;2023-12-20T17:56:11;22.70;;;14.50;;
2257;SDS011;1136;51.574;7.706;2023-12-20T17:59:15;18.17;;;13.30;;
2257;SDS011;1136;51.574;7.706;2023-12-20T18:02:19;22.13;;;14.17;;
2257;SDS011;1136;51.574;7.706;2023-12-20T18:05:24;19.70;;;11.90;;
2257;SDS011;1136;51.574;7.706;2023-12-20T18:08:28;20.53;;;12.13;;
2257;SDS011;1136;51.574;7.706;2023-12-20T18:11:32;17.30;;;12.17;;
2257;SDS011;1136;51.574;7.706;2023-12-20T18:14:36;15.73;;;12.00;;
2257;SDS011;1136;51.574;7.706;2023-12-20T18:17:41;19.37;;;11.80;;
2257;SDS011;1136;51.574;7.706;2023-12-20T18:20:45;16.07;;;11.60;;
2257;SDS011;1136;51.574;7.706;2023-12-20T18:23:49;18.30;;;11.47;;
2257;SDS011;1136;51.574;7.706;2023-12-20T18:27:00;24.13;;;11.70;;
2257;SDS011;1136;51.574;7.706;2023-12-20T18:30:04;16.93;;;10.40;;
2257;SDS011;1136;51.574;7.706;2023-12-20T18:33:20;14.77;;;11.80;;
2257;SDS011;1136;51.574;7.706;2023-12-20T18:36:24;19.27;;;11.57;;
2257;SDS011;1136;51.574;7.706;2023-12-20T18:39:28;20.73;;;11.53;;
2257;SDS011;1136;51.574;7.706;2023-12-20T18:42:33;17.40;;;10.53;;
2257;SDS011;1136;51.574;7.706;2023-12-20T18:45:37;20.23;;;10.73;;
2257;SDS011;1136;51.574;7.706;2023-12-20T18:48:41;14.23;;;10.40;;
2257;SDS011;1136;51.574;7.706;2023-12-20T18:51:47;19.10;;;10.53;;
2257;SDS011;1136;51.574;7.706;2023-12-20T18:54:51;16.30;;;10.63;;
2257;SDS011;1136;51.574;7.706;2023-12-20T18:57:55;13.23;;;10.60;;
2257;SDS011;1136;51.574;7.706;2023-12-20T19:00:59;15.50;;;10.13;;
2257;SDS011;1136;51.574;7.706;2023-12-20T19:04:04;15.10;;;10.87;;
2257;SDS011;1136;51.574;7.706;2023-12-20T19:07:08;21.63;;;10.50;;
2257;SDS011;1136;51.574;7.706;2023-12-20T19:10:13;20.67;;;11.20;;